createdAt,value
2018-09-09T06:57:24.841Z,6652
2018-09-09T06:58:32.870Z,6752
2018-09-09T06:59:41.102Z,6508
2018-09-09T07:00:49.392Z,6296
2018-09-09T07:01:57.515Z,6900
2018-09-09T07:03:05.304Z,8736
2018-09-09T07:04:13.694Z,8972
2018-09-09T07:05:21.795Z,12328
2018-09-09T07:06:30.418Z,11240
2018-09-09T07:07:38.416Z,9280
2018-09-09T07:08:47.441Z,9776
2018-09-09T07:09:53.940Z,8828
2018-09-09T07:11:02.866Z,8736
2018-09-09T07:12:10.211Z,11548
2018-09-09T07:13:18.136Z,19488
2018-09-09T07:14:26.480Z,27264
2018-09-09T07:15:34.997Z,27232
2018-09-09T07:16:42.804Z,20480
2018-09-09T07:17:50.408Z,20224
2018-09-09T07:18:58.537Z,24000
2018-09-09T07:20:06.539Z,23552
2018-09-09T07:21:15.037Z,22912
2018-09-09T07:22:22.701Z,22848
2018-09-09T07:23:30.843Z,23392
2018-09-09T07:24:38.803Z,23648
2018-09-09T07:25:47.211Z,24064
2018-09-09T07:26:57.971Z,24224
2018-09-09T07:28:05.635Z,25760
2018-09-09T07:29:13.843Z,27328
2018-09-09T07:30:21.781Z,29088
2018-09-09T07:31:31.250Z,29600
2018-09-09T07:32:37.938Z,30272
2018-09-09T07:33:45.987Z,36480
2018-09-09T07:34:54.070Z,47104
2018-09-09T07:38:27.181Z,37600
2018-09-09T07:39:37.158Z,37600
2018-09-09T07:40:46.664Z,39936
2018-09-09T07:41:54.932Z,39968
2018-09-09T07:43:16.412Z,40448
2018-09-09T07:44:14.325Z,41248
2018-09-09T07:45:19.626Z,41824
2018-09-09T07:46:28.433Z,41664
2018-09-09T07:47:35.959Z,43296
2018-09-09T07:48:43.954Z,43648
2018-09-09T07:49:51.911Z,43168
2018-09-09T07:51:00.299Z,43104
2018-09-09T07:52:08.738Z,43008
2018-09-09T07:53:16.230Z,44000
2018-09-09T07:54:24.813Z,45280
2018-09-09T07:55:37.501Z,46048
2018-09-09T07:56:41.044Z,45536
2018-09-09T07:57:49.009Z,44928
2018-09-09T07:58:58.610Z,45824
2018-09-09T08:00:12.647Z,47232
2018-09-09T08:01:20.958Z,48608
2018-09-09T08:02:29.056Z,47456
2018-09-09T08:03:37.196Z,48192
2018-09-09T08:04:49.809Z,49440
2018-09-09T08:05:57.691Z,49280
2018-09-09T08:07:05.790Z,50784
2018-09-09T08:08:13.428Z,51616
2018-09-09T08:09:21.518Z,52256
2018-09-09T08:10:29.900Z,54208
2018-09-09T08:11:37.666Z,39776
2018-09-09T08:12:45.742Z,46208
2018-09-09T08:13:53.811Z,53120
2018-09-09T08:15:01.905Z,54752
2018-09-09T08:16:09.978Z,54304
2018-09-09T08:17:18.040Z,53408
2018-09-09T08:18:26.152Z,52608
2018-09-09T08:19:34.408Z,49952
2018-09-09T08:20:42.492Z,51680
2018-09-09T08:21:50.564Z,50976
2018-09-09T08:22:58.647Z,52320
2018-09-09T08:24:06.720Z,53120
2018-09-09T08:25:14.797Z,55040
2018-09-09T08:26:22.849Z,56160
2018-09-09T08:27:30.935Z,56832
2018-09-09T08:28:39.006Z,58016
2018-09-09T08:29:47.093Z,61952
2018-09-09T08:30:55.162Z,59680
2018-09-09T08:32:03.208Z,56608
2018-09-09T08:33:11.324Z,56064
2018-09-09T08:34:19.575Z,56480
2018-09-09T08:35:27.479Z,52992
2018-09-09T08:36:35.542Z,54656
2018-09-09T08:37:43.924Z,54368
2018-09-09T08:38:51.894Z,57088
2018-09-09T08:40:00.300Z,56608
2018-09-09T08:41:08.063Z,56032
2018-09-09T08:42:16.134Z,31904
2018-09-09T08:43:24.301Z,6868
2018-09-09T08:44:32.278Z,6316
2018-09-09T08:45:40.370Z,6244
2018-09-09T08:46:48.697Z,6212
2018-09-09T08:47:56.504Z,6180
2018-09-09T08:49:04.585Z,6132
2018-09-09T08:50:12.639Z,6080
2018-09-09T08:51:20.738Z,6012
2018-09-09T08:52:28.812Z,5932
2018-09-09T08:53:36.892Z,5904
2018-09-09T08:54:46.974Z,5824
2018-09-09T08:55:53.006Z,5840
2018-09-09T08:57:03.358Z,5796
2018-09-09T08:58:17.451Z,5776
2018-09-09T08:59:19.284Z,5740
2018-09-09T09:00:27.351Z,5700
2018-09-09T09:01:35.442Z,5612
2018-09-09T09:02:46.103Z,5368
2018-09-09T09:03:54.176Z,5272
2018-09-09T09:05:02.252Z,5268
2018-09-09T09:06:10.309Z,5380
2018-09-09T09:07:18.414Z,5472
2018-09-09T09:08:26.468Z,5440
2018-09-09T09:09:34.530Z,5396
2018-09-09T09:10:42.887Z,5356
2018-09-09T09:11:50.987Z,5332
2018-09-09T09:12:58.751Z,5320
2018-09-09T09:14:06.814Z,5340
2018-09-09T09:15:14.887Z,5368
2018-09-09T09:16:22.931Z,5408
2018-09-09T09:17:31.024Z,5456
2018-09-09T09:18:39.123Z,5512
2018-09-09T09:19:47.185Z,5540
2018-09-09T09:20:55.504Z,5572
2018-09-09T09:22:03.281Z,5628
2018-09-09T09:23:11.384Z,5680
2018-09-09T09:24:19.456Z,5724
2018-09-09T09:25:27.516Z,5744
2018-09-09T09:26:35.605Z,5760
2018-09-09T09:27:43.665Z,5792
2018-09-09T09:28:52.102Z,5796
2018-09-09T09:30:00.116Z,5736
2018-09-09T09:31:07.878Z,5672
2018-09-09T09:32:15.946Z,5616
2018-09-09T09:33:24.027Z,5556
2018-09-09T09:34:32.095Z,5512
2018-09-09T09:35:40.149Z,5472
2018-09-09T09:36:48.220Z,5432
2018-09-09T09:37:56.300Z,5408
2018-09-09T09:39:04.361Z,5372
2018-09-09T09:40:12.413Z,5332
2018-09-09T09:41:21.101Z,5316
2018-09-09T09:42:29.473Z,5276
2018-09-09T09:43:37.442Z,5216
2018-09-09T09:44:45.568Z,5124
2018-09-09T09:45:53.603Z,5064
2018-09-09T09:47:01.661Z,4944
2018-09-09T09:48:09.740Z,4964
2018-09-09T09:49:17.801Z,4956
2018-09-09T09:50:25.871Z,4936
2018-09-09T09:51:33.937Z,4944
2018-09-09T09:52:42.018Z,4948
2018-09-09T09:53:50.305Z,4832
2018-09-09T09:54:58.372Z,4936
2018-09-09T09:56:06.425Z,4932
2018-09-09T09:57:14.508Z,4952
2018-09-09T09:58:22.552Z,4976
2018-09-09T09:59:30.628Z,5012
2018-09-09T10:00:38.701Z,5052
2018-09-09T10:01:46.869Z,5088
2018-09-09T10:02:59.236Z,5120
2018-09-09T10:04:02.893Z,5144
2018-09-09T10:05:10.989Z,5164
2018-09-09T10:06:19.059Z,5160
2018-09-09T10:07:27.224Z,5140
2018-09-09T10:08:35.485Z,5092
2018-09-09T10:09:43.465Z,5088
2018-09-09T10:10:51.753Z,5064
2018-09-09T10:12:00.111Z,4976
2018-09-09T10:13:07.879Z,4952
2018-09-09T10:14:15.961Z,4896
2018-09-09T10:15:24.119Z,4852
2018-09-09T10:16:32.097Z,4776
2018-09-09T10:17:40.178Z,4580
2018-09-09T10:18:48.234Z,4472
2018-09-09T10:19:56.312Z,4520
2018-09-09T10:21:04.373Z,4628
2018-09-09T10:22:13.517Z,4708
2018-09-09T10:23:20.498Z,4756
2018-09-09T10:24:28.578Z,4784
2018-09-09T10:25:36.657Z,4808
2018-09-09T10:26:44.725Z,4828
2018-09-09T10:27:52.766Z,4864
2018-09-09T10:29:00.861Z,4900
2018-09-09T10:30:09.004Z,4932
2018-09-09T10:31:17.063Z,4944
2018-09-09T10:32:25.134Z,4956
2018-09-09T10:33:33.120Z,4972
2018-09-09T10:34:41.222Z,4960
2018-09-09T10:35:49.897Z,4912
2018-09-09T10:36:57.978Z,4876
2018-09-09T10:38:06.040Z,4868
2018-09-09T10:39:14.099Z,4900
2018-09-09T10:40:22.201Z,4912
2018-09-09T10:41:30.248Z,4912
2018-09-09T10:42:38.314Z,4916
2018-09-09T10:43:46.390Z,4892
2018-09-09T10:44:54.794Z,4860
2018-09-09T10:46:03.397Z,4812
2018-09-09T10:47:10.896Z,4756
2018-09-09T10:48:19.162Z,4712
2018-09-09T10:49:27.212Z,4660
2018-09-09T10:50:35.086Z,4576
2018-09-09T10:51:43.723Z,4568
2018-09-09T10:52:51.209Z,4436
2018-09-09T10:53:59.252Z,4392
2018-09-09T10:55:07.657Z,4436
2018-09-09T10:56:15.383Z,4476
2018-09-09T10:57:23.449Z,4504
2018-09-09T10:58:31.519Z,4544
2018-09-09T10:59:39.877Z,4592
2018-09-09T11:00:47.657Z,4652
2018-09-09T11:01:55.727Z,4664
2018-09-09T11:03:03.796Z,4600
2018-09-09T11:04:11.870Z,4548
2018-09-09T11:05:20.217Z,4568
2018-09-09T11:06:28.010Z,4636
2018-09-09T11:07:36.131Z,4680
2018-09-09T11:08:44.173Z,4704
2018-09-09T11:09:52.225Z,4720
2018-09-09T11:11:00.305Z,4620
2018-09-09T11:12:08.385Z,4496
2018-09-09T11:13:16.647Z,4732
2018-09-09T11:14:24.743Z,4852
2018-09-09T11:15:32.859Z,4888
2018-09-09T11:16:40.866Z,4944
2018-09-09T11:17:48.922Z,5020
2018-09-09T11:18:57.061Z,5144
2018-09-09T11:20:05.065Z,5196
2018-09-09T11:21:13.114Z,5180
2018-09-09T11:22:21.308Z,5148
2018-09-09T11:23:29.284Z,5132
2018-09-09T11:24:37.421Z,5136
2018-09-09T11:25:45.426Z,5120
2018-09-09T11:26:53.500Z,5064
2018-09-09T11:28:01.592Z,5008
2018-09-09T11:29:09.634Z,4928
2018-09-09T11:30:17.733Z,4860
2018-09-09T11:31:25.776Z,4796
2018-09-09T11:32:33.846Z,4788
2018-09-09T11:33:41.916Z,4788
2018-09-09T11:34:49.985Z,4772
2018-09-09T11:35:58.347Z,4704
2018-09-09T11:37:06.132Z,4660
2018-09-09T11:38:14.201Z,4644
2018-09-09T11:39:22.272Z,4612
2018-09-09T11:40:30.350Z,4596
2018-09-09T11:41:38.461Z,4572
2018-09-09T11:42:46.508Z,4548
2018-09-09T11:43:54.591Z,4516
2018-09-09T11:45:02.611Z,4472
2018-09-09T11:46:10.916Z,4416
2018-09-09T11:47:18.988Z,4420
2018-09-09T11:48:27.063Z,4460
2018-09-09T11:49:35.147Z,4416
2018-09-09T11:50:43.176Z,4448
2018-09-09T11:51:51.284Z,4464
2018-09-09T11:52:59.429Z,4476
2018-09-09T11:54:07.425Z,4372
2018-09-09T11:55:16.656Z,4152
2018-09-09T11:56:23.591Z,4284
2018-09-09T11:57:31.634Z,4320
2018-09-09T11:58:39.705Z,4440
2018-09-09T11:59:47.785Z,4452
2018-09-09T12:00:56.890Z,4484
2018-09-09T12:02:03.967Z,4512
2018-09-09T12:03:12.098Z,4452
2018-09-09T12:04:21.114Z,4416
2018-09-09T12:05:28.240Z,4488
2018-09-09T12:06:36.219Z,4528
2018-09-09T12:07:44.287Z,4540
2018-09-09T12:08:52.381Z,4604
2018-09-09T12:10:00.421Z,4712
2018-09-09T12:11:08.494Z,4792
2018-09-09T12:12:16.566Z,4844
2018-09-09T12:13:24.650Z,4836
2018-09-09T12:14:32.685Z,5000
2018-09-09T12:15:40.890Z,5068
2018-09-09T12:16:48.844Z,5148
2018-09-09T12:17:56.977Z,5252
2018-09-09T12:19:05.082Z,5388
2018-09-09T12:20:13.311Z,5476
2018-09-09T12:21:21.130Z,5588
2018-09-09T12:22:29.251Z,5620
2018-09-09T12:23:37.612Z,5688
2018-09-09T12:24:45.344Z,5732
2018-09-09T12:25:53.403Z,5828
2018-09-09T12:27:01.484Z,6008
2018-09-09T12:28:09.618Z,6136
2018-09-09T12:29:17.824Z,6264
2018-09-09T12:30:25.893Z,6396
2018-09-09T12:31:34.176Z,6508
2018-09-09T12:32:42.384Z,6608
2018-09-09T12:33:50.801Z,6688
2018-09-09T12:34:58.658Z,6724
2018-09-09T12:36:06.683Z,6716
2018-09-09T12:37:14.739Z,6712
2018-09-09T12:38:22.782Z,6672
2018-09-09T12:39:30.880Z,6600
2018-09-09T12:40:38.971Z,6512
2018-09-09T12:41:47.027Z,6456
2018-09-09T12:42:55.153Z,6388
2018-09-09T12:44:03.142Z,6284
2018-09-09T12:45:11.249Z,6168
2018-09-09T12:46:19.311Z,6036
2018-09-09T12:47:27.383Z,5908
2018-09-09T12:48:35.459Z,5804
2018-09-09T12:49:43.541Z,5660
2018-09-09T12:50:51.908Z,5560
2018-09-09T12:51:59.671Z,5436
2018-09-09T12:53:07.745Z,5300
2018-09-09T12:54:15.809Z,5172
2018-09-09T12:55:23.882Z,5040
2018-09-09T12:56:31.970Z,4912
2018-09-09T12:57:40.032Z,4820
2018-09-09T12:58:48.368Z,4736
2018-09-09T12:59:56.377Z,4644
2018-09-09T13:01:04.441Z,4552
2018-09-09T13:02:12.502Z,4464
2018-09-09T13:03:20.594Z,4380
2018-09-09T13:04:28.664Z,4308
2018-09-09T13:05:36.731Z,4224
2018-09-09T13:06:44.809Z,4152
2018-09-09T13:07:52.861Z,4080
2018-09-09T13:09:00.950Z,4008
2018-09-09T13:10:09.018Z,3936
2018-09-09T13:11:17.098Z,3844
2018-09-09T13:12:25.156Z,3760
2018-09-09T13:13:33.434Z,3664
2018-09-09T13:14:41.510Z,3588
2018-09-09T13:15:49.585Z,3500
2018-09-09T13:16:57.664Z,3436
2018-09-09T13:18:05.730Z,3388
2018-09-09T13:19:13.801Z,3348
2018-09-09T13:20:21.874Z,3328
2018-09-09T13:21:29.935Z,3312
2018-09-09T13:22:38.006Z,3296
2018-09-09T13:23:46.085Z,3284
2018-09-09T13:24:54.744Z,3264
2018-09-09T13:26:02.404Z,3252
2018-09-09T13:27:10.505Z,3232
2018-09-09T13:28:18.577Z,3220
2018-09-09T13:29:26.665Z,3200
2018-09-09T13:30:35.137Z,3180
2018-09-09T13:31:43.073Z,3164
2018-09-09T13:32:50.964Z,3148
2018-09-09T13:33:58.939Z,3136
2018-09-09T13:35:07.299Z,3120
2018-09-09T13:36:15.445Z,3112
2018-09-09T13:37:24.942Z,3100
2018-09-09T13:38:31.561Z,3096
2018-09-09T13:39:40.482Z,3092
2018-09-09T13:40:47.361Z,3092
2018-09-09T13:41:55.436Z,3084
2018-09-09T13:43:03.489Z,3076
2018-09-09T13:44:11.590Z,3068
2018-09-09T13:45:19.967Z,3052
2018-09-09T13:46:27.931Z,3040
2018-09-09T13:47:36.002Z,3032
2018-09-09T13:48:44.070Z,3016
2018-09-09T13:49:52.139Z,3012
2018-09-09T13:51:00.205Z,3012
2018-09-09T13:52:08.275Z,3008
2018-09-09T13:53:16.349Z,3004
2018-09-09T13:54:24.419Z,2992
2018-09-09T13:55:32.482Z,2976
2018-09-09T13:56:40.569Z,2960
2018-09-09T13:57:48.641Z,2944
2018-09-09T13:58:56.701Z,2936
2018-09-09T14:00:04.779Z,2924
2018-09-09T14:01:12.825Z,2912
2018-09-09T14:02:20.981Z,2904
2018-09-09T14:03:28.988Z,2888
2018-09-09T14:04:37.104Z,2864
2018-09-09T14:05:45.127Z,2864
2018-09-09T14:06:53.187Z,2856
2018-09-09T14:08:01.302Z,2860
2018-09-09T14:09:09.442Z,2856
2018-09-09T14:10:17.420Z,2848
2018-09-09T14:11:25.507Z,2844
2018-09-09T14:12:33.561Z,2844
2018-09-09T14:13:41.647Z,2832
2018-09-09T14:14:49.700Z,2832
2018-09-09T14:15:57.781Z,2824
2018-09-09T14:17:05.841Z,2812
2018-09-09T14:18:14.149Z,2792
2018-09-09T14:19:22.186Z,2792
2018-09-09T14:20:30.268Z,2792
2018-09-09T14:21:38.336Z,2796
2018-09-09T14:22:46.404Z,2792
2018-09-09T14:23:54.480Z,2788
2018-09-09T14:25:02.528Z,2776
2018-09-09T14:26:10.621Z,2768
2018-09-09T14:27:18.688Z,2764
2018-09-09T14:28:26.970Z,2756
2018-09-09T14:29:35.031Z,2752
2018-09-09T14:30:43.081Z,2748
2018-09-09T14:31:51.181Z,2752
2018-09-09T14:32:59.283Z,2756
2018-09-09T14:34:07.368Z,2756
2018-09-09T14:35:15.493Z,2760
2018-09-09T14:36:23.454Z,2760
2018-09-09T14:37:31.547Z,2756
2018-09-09T14:38:39.605Z,2752
2018-09-09T14:39:47.674Z,2748
2018-09-09T14:40:55.751Z,2748
2018-09-09T14:42:03.807Z,2760
2018-09-09T14:43:11.894Z,2788
2018-09-09T14:44:20.222Z,2800
2018-09-09T14:45:28.035Z,2776
2018-09-09T14:46:36.097Z,2784
2018-09-09T14:47:44.164Z,2796
2018-09-09T14:48:52.528Z,2756
2018-09-09T14:50:00.318Z,2728
2018-09-09T14:51:08.380Z,2712
2018-09-09T14:52:16.470Z,2704
2018-09-09T14:53:24.595Z,2696
2018-09-09T14:54:32.626Z,2688
2018-09-09T14:55:40.707Z,2680
2018-09-09T14:56:48.942Z,2680
2018-09-09T14:57:57.026Z,2680
2018-09-09T14:59:05.087Z,2660
2018-09-09T15:00:13.131Z,2660
2018-09-09T15:01:21.237Z,2656
2018-09-09T15:02:29.308Z,2652
2018-09-09T15:03:37.368Z,2652
2018-09-09T15:04:45.432Z,2644
2018-09-09T15:05:53.552Z,2636
2018-09-09T15:07:01.693Z,2628
2018-09-09T15:08:09.661Z,2616
2018-09-09T15:09:17.726Z,2612
2018-09-09T15:10:25.808Z,2600
2018-09-09T15:11:33.860Z,2596
2018-09-09T15:12:41.930Z,2584
2018-09-09T15:13:49.991Z,2584
2018-09-09T15:14:58.076Z,2584
2018-09-09T15:16:06.162Z,2584
2018-09-09T15:17:14.213Z,2580
2018-09-09T15:18:22.280Z,2580
2018-09-09T15:19:30.359Z,2576
2018-09-09T15:20:38.448Z,2576
2018-09-09T15:21:46.501Z,2572
2018-09-09T15:22:54.574Z,2568
2018-09-09T15:24:02.617Z,2564
2018-09-09T15:25:10.724Z,2560
2018-09-09T15:26:18.795Z,2552
2018-09-09T15:27:26.864Z,2548
2018-09-09T15:28:34.937Z,2544
2018-09-09T15:29:42.972Z,2536
2018-09-09T15:30:51.323Z,2532
2018-09-09T15:31:59.143Z,2524
2018-09-09T15:33:07.223Z,2516
2018-09-09T15:34:15.295Z,2500
2018-09-09T15:35:23.343Z,2488
2018-09-09T15:36:31.412Z,2472
2018-09-09T15:37:39.491Z,2464
2018-09-09T15:38:47.667Z,2456
2018-09-09T15:41:03.909Z,2440
2018-09-09T15:42:11.994Z,2432
2018-09-09T15:43:20.669Z,2428
2018-09-09T15:44:28.124Z,2424
2018-09-09T15:45:36.269Z,2420
2018-09-09T15:46:44.291Z,2416
2018-09-09T15:47:52.601Z,2416
2018-09-09T15:49:00.868Z,2404
2018-09-09T15:50:12.891Z,2392
2018-09-09T15:51:20.982Z,2380
2018-09-09T15:52:29.413Z,2368
2018-09-09T15:53:37.141Z,2360
2018-09-09T15:54:45.204Z,2360
2018-09-09T15:55:53.248Z,2348
2018-09-09T15:57:01.383Z,2340
2018-09-09T15:58:09.491Z,2332
2018-09-09T15:59:17.479Z,2320
2018-09-09T16:00:25.607Z,2312
2018-09-09T16:01:33.623Z,2300
2018-09-09T16:02:54.434Z,2288
2018-09-09T16:03:50.023Z,2272
2018-09-09T16:04:57.825Z,2268
2018-09-09T16:06:05.886Z,2256
2018-09-09T16:08:24.934Z,2232
2018-09-09T16:09:32.702Z,2220
2018-09-09T16:10:40.792Z,2204
2018-09-09T16:11:49.152Z,2196
2018-09-09T16:12:57.191Z,2176
2018-09-09T16:14:05.209Z,2168
2018-09-09T16:15:13.262Z,2148
2018-09-09T16:16:21.376Z,2132
2018-09-09T16:17:29.518Z,2116
2018-09-09T16:18:37.537Z,2100
2018-09-09T16:19:46.015Z,2092
2018-09-09T16:20:53.828Z,2080
2018-09-09T16:22:01.906Z,2068
2018-09-09T16:23:09.994Z,2060
2018-09-09T16:24:18.042Z,2052
2018-09-09T16:25:26.101Z,2044
2018-09-09T16:26:34.177Z,2036
2018-09-09T16:27:42.247Z,2024
2018-09-09T16:28:50.330Z,2016
2018-09-09T16:29:58.393Z,2004
2018-09-09T16:31:06.469Z,1992
2018-09-09T16:32:14.524Z,1980
2018-09-09T16:33:22.577Z,1964
2018-09-09T16:34:30.697Z,1952
2018-09-09T16:35:38.743Z,1940
2018-09-09T16:36:47.162Z,1920
2018-09-09T16:37:54.883Z,1904
2018-09-09T16:39:02.926Z,1888
2018-09-09T16:40:11.020Z,1868
2018-09-09T16:41:19.091Z,1848
2018-09-09T16:42:27.166Z,1828
2018-09-09T16:43:35.479Z,1808
2018-09-09T16:44:43.273Z,1792
2018-09-09T16:45:51.375Z,1768
2018-09-09T16:46:59.444Z,1744
2018-09-09T16:48:07.519Z,1716
2018-09-09T16:49:15.582Z,1684
2018-09-09T16:50:23.637Z,1660
2018-09-09T16:51:31.713Z,1636
2018-09-09T16:52:39.786Z,1608
2018-09-09T16:53:47.855Z,1584
2018-09-09T16:54:55.930Z,1560
2018-09-09T16:56:05.054Z,1544
2018-09-09T16:57:12.069Z,1520
2018-09-09T16:58:20.140Z,1492
2018-09-09T16:59:28.211Z,1472
2018-09-09T17:00:36.325Z,1436
2018-09-09T17:01:44.696Z,1404
2018-09-09T17:02:52.404Z,1384
2018-09-09T17:04:00.746Z,1368
2018-09-09T17:05:08.571Z,1344
2018-09-09T17:06:16.635Z,1320
2018-09-09T17:07:24.692Z,1300
2018-09-09T17:08:32.745Z,1276
2018-09-09T17:09:40.840Z,1248
2018-09-09T17:10:49.114Z,1224
2018-09-09T17:11:57.183Z,1196
2018-09-09T17:13:05.594Z,1168
2018-09-09T17:14:13.389Z,1144
2018-09-09T17:15:21.467Z,1116
2018-09-09T17:16:29.734Z,1092
2018-09-09T17:17:37.525Z,1064
2018-09-09T17:18:45.592Z,1036
2018-09-09T17:19:53.666Z,1004
2018-09-09T17:21:01.735Z,972
2018-09-09T17:22:09.800Z,944
2018-09-09T17:23:17.874Z,912
2018-09-09T17:24:25.953Z,880
2018-09-09T17:25:34.015Z,848
2018-09-09T17:26:42.328Z,816
2018-09-09T17:27:50.185Z,784
2018-09-09T17:29:02.630Z,748
2018-09-09T17:30:10.525Z,712
2018-09-09T17:31:18.598Z,676
2018-09-09T17:32:26.648Z,644
2018-09-09T17:33:34.715Z,612
2018-09-09T17:34:43.847Z,576
2018-09-09T17:35:55.096Z,544
2018-09-09T17:37:03.149Z,508
2018-09-09T17:38:17.505Z,476
2018-09-09T17:39:19.308Z,444
2018-09-09T17:40:27.376Z,412
2018-09-09T17:41:35.435Z,380
2018-09-09T17:42:43.493Z,348
2018-09-09T17:43:51.586Z,324
2018-09-09T17:44:59.651Z,296
2018-09-09T17:46:07.705Z,268
2018-09-09T17:47:15.867Z,240
2018-09-09T17:48:23.840Z,216
2018-09-09T17:49:31.908Z,192
2018-09-09T17:50:39.973Z,172
2018-09-09T17:51:48.092Z,152
2018-09-09T17:52:56.133Z,136
2018-09-09T17:54:04.192Z,116
2018-09-09T17:55:12.289Z,100
2018-09-09T17:56:20.319Z,88
2018-09-09T17:57:28.479Z,76
2018-09-09T17:58:36.444Z,64
2018-09-09T17:59:44.514Z,56
2018-09-09T18:00:52.560Z,44
2018-09-09T18:02:00.651Z,36
2018-09-09T18:03:08.724Z,32
2018-09-09T18:04:16.806Z,28
2018-09-09T18:05:24.883Z,24
2018-09-09T18:06:32.987Z,16
2018-09-09T18:07:40.987Z,12
2018-09-09T18:08:49.057Z,12
2018-09-09T18:09:57.113Z,8
2018-09-09T18:11:05.618Z,4
2018-09-09T18:12:13.455Z,4
2018-09-09T18:13:24.285Z,4
2018-09-09T18:14:35.239Z,4
2018-09-09T18:15:40.268Z,0
2018-09-09T18:16:48.338Z,4
2018-09-09T18:17:56.399Z,4
2018-09-09T18:19:04.834Z,0
2018-09-09T18:20:12.599Z,0
2018-09-09T18:21:23.232Z,0
2018-09-09T18:22:32.748Z,0
2018-09-09T18:23:40.801Z,0
2018-09-09T18:24:48.818Z,0
2018-09-09T18:26:04.764Z,0
2018-09-09T18:27:12.589Z,0
2018-09-09T18:28:22.802Z,0
2018-09-09T18:29:28.885Z,0
2018-09-09T18:30:36.812Z,0
2018-09-09T18:31:44.871Z,0
2018-09-09T18:32:52.911Z,0
2018-09-09T18:34:01.003Z,0
2018-09-09T18:35:09.101Z,0
2018-09-09T18:36:17.128Z,0
2018-09-09T18:37:25.397Z,0
2018-09-09T18:38:33.472Z,0
2018-09-09T18:39:41.544Z,0
2018-09-09T18:40:49.600Z,0
2018-09-09T18:41:57.663Z,0
2018-09-09T18:43:05.726Z,0
2018-09-09T18:44:13.794Z,0
2018-09-09T18:45:21.856Z,0
2018-09-09T18:46:29.910Z,0
2018-09-09T18:47:53.951Z,0
2018-09-09T18:48:46.915Z,0
2018-09-09T18:49:54.759Z,0
2018-09-09T18:51:02.897Z,0
2018-09-09T18:52:10.844Z,0
2018-09-09T18:53:19.117Z,0
2018-09-09T18:54:27.179Z,0
2018-09-09T18:56:52.381Z,0
2018-09-09T18:59:17.645Z,0
2018-09-09T19:00:25.657Z,0
2018-09-09T19:01:33.738Z,0
2018-09-09T19:02:41.805Z,0
2018-09-09T19:03:49.854Z,0
2018-09-09T19:04:57.917Z,0
2018-09-09T19:06:06.307Z,0
2018-09-09T19:07:14.063Z,0
2018-09-09T19:08:22.135Z,0
2018-09-09T19:09:30.239Z,0
2018-09-09T19:10:38.255Z,0
2018-09-09T19:11:46.328Z,0
2018-09-09T19:12:54.390Z,0
2018-09-09T19:14:02.480Z,0
2018-09-09T19:15:10.514Z,0
2018-09-09T19:16:18.686Z,0
2018-09-09T19:17:26.648Z,0
2018-09-09T19:18:34.979Z,0
2018-09-09T19:19:42.790Z,0
2018-09-09T19:20:51.128Z,0
2018-09-09T19:21:59.060Z,0
2018-09-09T19:23:06.972Z,0
2018-09-09T19:24:15.042Z,0
2018-09-09T19:25:24.520Z,0
2018-09-09T19:26:31.490Z,0
2018-09-09T19:27:39.339Z,0
2018-09-09T19:28:47.329Z,0
2018-09-09T19:29:55.368Z,0
2018-09-09T19:31:03.458Z,0
2018-09-09T19:32:11.581Z,0
2018-09-09T19:33:19.838Z,0
2018-09-09T19:34:27.629Z,0
2018-09-09T19:35:35.693Z,0
2018-09-09T19:36:43.744Z,0
2018-09-09T19:37:51.819Z,0
2018-09-09T19:39:06.153Z,0
2018-09-09T19:40:07.948Z,0
2018-09-09T19:41:16.045Z,0
2018-09-09T19:42:24.426Z,0
2018-09-09T19:43:33.405Z,0
2018-09-09T19:44:40.410Z,0
2018-09-09T19:45:48.468Z,0
2018-09-09T19:46:56.534Z,0
2018-09-09T19:48:04.598Z,0
2018-09-09T19:49:12.626Z,0
2018-09-09T19:50:21.070Z,0
2018-09-09T19:51:28.876Z,0
2018-09-09T19:52:36.843Z,0
2018-09-09T19:53:44.905Z,0
2018-09-09T19:54:53.465Z,0
2018-09-09T19:56:01.271Z,0
2018-09-09T19:57:09.359Z,0
2018-09-09T19:58:17.433Z,0
2018-09-09T19:59:25.430Z,0
2018-09-09T20:00:33.489Z,0
2018-09-09T20:01:41.559Z,0
2018-09-09T20:02:49.633Z,0
2018-09-09T20:03:57.693Z,0
2018-09-09T20:05:12.788Z,0
2018-09-09T20:06:19.531Z,0
2018-09-09T20:07:27.546Z,0
2018-09-09T20:08:35.647Z,0
2018-09-09T20:09:43.746Z,0
2018-09-09T20:10:51.722Z,0
2018-09-09T20:11:59.793Z,0
2018-09-09T20:13:07.853Z,0
2018-09-09T20:14:15.917Z,0
2018-09-09T20:15:23.969Z,0
2018-09-09T20:16:32.045Z,0
2018-09-09T20:17:40.103Z,0
2018-09-09T20:18:48.177Z,0
2018-09-09T20:20:01.694Z,0
2018-09-09T20:21:09.743Z,0
2018-09-09T20:22:17.803Z,0
2018-09-09T20:23:27.488Z,0
2018-09-09T20:24:35.547Z,0
2018-09-09T20:25:43.672Z,0
2018-09-09T20:26:51.669Z,0
2018-09-09T20:27:59.726Z,0
2018-09-09T20:29:07.793Z,0
2018-09-09T20:30:15.859Z,0
2018-09-09T20:31:23.916Z,0
2018-09-09T20:32:31.986Z,0
2018-09-09T20:33:40.046Z,0
2018-09-09T20:34:48.114Z,0
2018-09-09T20:35:56.179Z,0
2018-09-09T20:37:04.236Z,0
2018-09-09T20:38:12.295Z,0
2018-09-09T20:39:20.371Z,0
2018-09-09T20:40:28.432Z,0
2018-09-09T20:41:36.494Z,0
2018-09-09T20:42:44.679Z,0
2018-09-09T20:43:52.593Z,0
2018-09-09T20:45:00.777Z,0
2018-09-09T20:46:09.117Z,0
2018-09-09T20:47:16.818Z,0
2018-09-09T20:48:24.879Z,0
2018-09-09T20:49:32.914Z,0
2018-09-09T20:50:41.005Z,0
2018-09-09T20:51:49.077Z,0
2018-09-09T20:52:58.162Z,0
2018-09-09T20:54:05.219Z,0
2018-09-09T20:55:13.278Z,0
2018-09-09T20:56:21.684Z,0
2018-09-09T20:57:29.688Z,0
2018-09-09T20:58:38.307Z,0
2018-09-09T20:59:45.885Z,0
2018-09-09T21:00:53.886Z,0
2018-09-09T21:02:02.117Z,0
2018-09-09T21:03:10.026Z,0
2018-09-09T21:04:17.766Z,0
2018-09-09T21:05:25.847Z,0
2018-09-09T21:06:33.909Z,0
2018-09-09T21:07:42.172Z,0
2018-09-09T21:08:50.037Z,0
2018-09-09T21:09:58.106Z,0
2018-09-09T21:11:06.150Z,0
2018-09-09T21:12:14.573Z,0
2018-09-09T21:13:22.572Z,0
2018-09-09T21:14:30.667Z,0
2018-09-09T21:15:38.827Z,0
2018-09-09T21:16:46.814Z,0
2018-09-09T21:17:54.557Z,0
2018-09-09T21:19:02.581Z,0
2018-09-09T21:20:10.669Z,0
2018-09-09T21:21:18.732Z,0
2018-09-09T21:22:26.799Z,0
2018-09-09T21:23:34.913Z,0
2018-09-09T21:24:42.895Z,0
2018-09-09T21:25:51.306Z,0
2018-09-09T21:26:59.263Z,0
2018-09-09T21:28:07.639Z,0
2018-09-09T21:29:15.376Z,0
2018-09-09T21:30:23.454Z,0
2018-09-09T21:31:31.506Z,0
2018-09-09T21:32:39.587Z,0
2018-09-09T21:33:47.632Z,0
2018-09-09T21:34:55.781Z,0
2018-09-09T21:36:03.769Z,0
2018-09-09T21:37:12.037Z,0
2018-09-09T21:38:20.095Z,0
2018-09-09T21:39:28.157Z,0
2018-09-09T21:40:36.233Z,0
2018-09-09T21:41:44.297Z,0
2018-09-09T21:42:52.345Z,0
2018-09-09T21:44:00.425Z,0
2018-09-09T21:45:08.479Z,0
2018-09-09T21:46:16.642Z,0
2018-09-09T21:47:24.618Z,0
2018-09-09T21:48:32.640Z,0
2018-09-09T21:49:40.727Z,0
2018-09-09T21:50:48.807Z,0
2018-09-09T21:51:56.865Z,0
2018-09-09T21:53:04.936Z,0
2018-09-09T21:54:12.967Z,0
2018-09-09T21:55:21.064Z,0
2018-09-09T21:56:29.119Z,0
2018-09-09T21:57:37.176Z,0
2018-09-09T21:58:45.248Z,0
2018-09-09T21:59:53.292Z,0
2018-09-09T22:01:01.383Z,0
2018-09-09T22:02:09.477Z,0
2018-09-09T22:03:17.508Z,0
2018-09-09T22:04:25.563Z,0
2018-09-09T22:05:33.640Z,0
2018-09-09T22:06:41.700Z,0
2018-09-09T22:07:49.757Z,0
2018-09-09T22:08:57.864Z,0
2018-09-09T22:10:05.894Z,0
2018-09-09T22:11:13.944Z,0
2018-09-09T22:12:22.021Z,0
2018-09-09T22:13:30.068Z,0
2018-09-09T22:14:38.137Z,0
2018-09-09T22:15:46.204Z,0
2018-09-09T22:16:54.268Z,0
2018-09-09T22:18:02.321Z,0
2018-09-09T22:19:10.421Z,0
2018-09-09T22:20:18.462Z,0
2018-09-09T22:21:26.526Z,0
2018-09-09T22:22:34.631Z,0
2018-09-09T22:23:42.672Z,0
2018-09-09T22:24:50.702Z,0
2018-09-09T22:25:59.849Z,0
2018-09-09T22:27:06.836Z,0
2018-09-09T22:28:15.001Z,0
2018-09-09T22:29:23.139Z,0
2018-09-09T22:30:31.239Z,0
2018-09-09T22:31:39.297Z,0
2018-09-09T22:32:47.707Z,0
2018-09-09T22:33:55.424Z,0
2018-09-09T22:35:03.473Z,0
2018-09-09T22:36:11.559Z,0
2018-09-09T22:37:19.603Z,0